sensor_id;sensor_type;location;lat;lon;timestamp;temperature;humidity
8684;DHT22;4379;59.744;18.206;2022-11-20T00:01:21;-0.30;99.90
8684;DHT22;4379;59.744;18.206;2022-11-20T00:03:51;-0.40;99.90
8684;DHT22;4379;59.744;18.206;2022-11-20T00:06:20;-0.40;99.90
8684;DHT22;4379;59.744;18.206;2022-11-20T00:08:48;-0.30;99.90
8684;DHT22;4379;59.744;18.206;2022-11-20T00:11:20;-0.20;99.90
8684;DHT22;4379;59.744;18.206;2022-11-20T00:13:52;-0.20;99.90
8684;DHT22;4379;59.744;18.206;2022-11-20T00:16:22;-0.20;99.90
8684;DHT22;4379;59.744;18.206;2022-11-20T00:18:50;-0.30;99.90
8684;DHT22;4379;59.744;18.206;2022-11-20T00:21:25;-0.40;99.90
8684;DHT22;4379;59.744;18.206;2022-11-20T00:23:55;-0.50;99.90
8684;DHT22;4379;59.744;18.206;2022-11-20T00:26:25;-0.30;99.90
8684;DHT22;4379;59.744;18.206;2022-11-20T00:28:58;-0.30;99.90
8684;DHT22;4379;59.744;18.206;2022-11-20T00:31:26;-0.40;99.90
8684;DHT22;4379;59.744;18.206;2022-11-20T00:33:53;-0.50;99.90
8684;DHT22;4379;59.744;18.206;2022-11-20T00:36:23;-0.40;99.90
8684;DHT22;4379;59.744;18.206;2022-11-20T00:38:53;-0.50;99.90
8684;DHT22;4379;59.744;18.206;2022-11-20T00:41:21;-0.40;99.90
8684;DHT22;4379;59.744;18.206;2022-11-20T00:43:48;-0.30;99.90
8684;DHT22;4379;59.744;18.206;2022-11-20T00:46:18;-0.40;99.90
8684;DHT22;4379;59.744;18.206;2022-11-20T00:48:48;-0.40;99.90
8684;DHT22;4379;59.744;18.206;2022-11-20T00:51:19;-0.40;99.90
8684;DHT22;4379;59.744;18.206;2022-11-20T00:53:46;-0.50;99.90
8684;DHT22;4379;59.744;18.206;2022-11-20T00:56:15;-0.40;99.90
8684;DHT22;4379;59.744;18.206;2022-11-20T00:58:46;-0.50;99.90
8684;DHT22;4379;59.744;18.206;2022-11-20T01:01:18;-0.40;99.90
8684;DHT22;4379;59.744;18.206;2022-11-20T01:03:48;-0.50;99.90
8684;DHT22;4379;59.744;18.206;2022-11-20T01:06:18;-0.40;99.90
8684;DHT22;4379;59.744;18.206;2022-11-20T01:08:46;-0.40;99.90
8684;DHT22;4379;59.744;18.206;2022-11-20T01:11:17;-0.40;99.90
8684;DHT22;4379;59.744;18.206;2022-11-20T01:13:46;-0.30;99.90
8684;DHT22;4379;59.744;18.206;2022-11-20T01:16:24;-0.40;99.90
8684;DHT22;4379;59.744;18.206;2022-11-20T01:18:55;-0.40;99.90
8684;DHT22;4379;59.744;18.206;2022-11-20T01:21:25;-0.30;99.90
8684;DHT22;4379;59.744;18.206;2022-11-20T01:23:53;-0.30;99.90
8684;DHT22;4379;59.744;18.206;2022-11-20T01:26:24;-0.20;99.90
8684;DHT22;4379;59.744;18.206;2022-11-20T01:28:52;-0.20;99.90
8684;DHT22;4379;59.744;18.206;2022-11-20T01:33:54;-0.30;99.90
8684;DHT22;4379;59.744;18.206;2022-11-20T01:36:24;-0.30;99.90
8684;DHT22;4379;59.744;18.206;2022-11-20T01:38:56;-0.40;99.90
8684;DHT22;4379;59.744;18.206;2022-11-20T01:41:25;-0.40;99.90
8684;DHT22;4379;59.744;18.206;2022-11-20T01:44:14;-0.50;99.90
8684;DHT22;4379;59.744;18.206;2022-11-20T01:47:00;-0.50;99.90
8684;DHT22;4379;59.744;18.206;2022-11-20T01:49:52;-0.50;99.90
8684;DHT22;4379;59.744;18.206;2022-11-20T01:52:58;-0.40;99.90
8684;DHT22;4379;59.744;18.206;2022-11-20T01:55:32;-0.30;99.90
8684;DHT22;4379;59.744;18.206;2022-11-20T01:58:01;-0.40;99.90
8684;DHT22;4379;59.744;18.206;2022-11-20T02:00:29;-0.30;99.90
8684;DHT22;4379;59.744;18.206;2022-11-20T02:02:59;-0.30;99.90
8684;DHT22;4379;59.744;18.206;2022-11-20T02:05:32;-0.20;99.90
8684;DHT22;4379;59.744;18.206;2022-11-20T02:08:03;-0.20;99.90
8684;DHT22;4379;59.744;18.206;2022-11-20T02:10:31;-0.40;99.90
8684;DHT22;4379;59.744;18.206;2022-11-20T02:12:59;-0.40;99.90
8684;DHT22;4379;59.744;18.206;2022-11-20T02:15:45;-0.40;99.90
8684;DHT22;4379;59.744;18.206;2022-11-20T02:18:14;-0.40;99.90
8684;DHT22;4379;59.744;18.206;2022-11-20T02:20:45;-0.50;99.90
8684;DHT22;4379;59.744;18.206;2022-11-20T02:23:21;-0.40;99.90
8684;DHT22;4379;59.744;18.206;2022-11-20T02:25:51;-0.40;99.90
8684;DHT22;4379;59.744;18.206;2022-11-20T02:28:19;-0.30;99.90
8684;DHT22;4379;59.744;18.206;2022-11-20T02:30:47;-0.40;99.90
8684;DHT22;4379;59.744;18.206;2022-11-20T02:33:14;-0.40;99.90
8684;DHT22;4379;59.744;18.206;2022-11-20T02:35:46;-0.50;99.90
8684;DHT22;4379;59.744;18.206;2022-11-20T02:38:14;-0.50;99.90
8684;DHT22;4379;59.744;18.206;2022-11-20T02:40:42;-0.50;99.90
8684;DHT22;4379;59.744;18.206;2022-11-20T02:43:10;-0.40;99.90
8684;DHT22;4379;59.744;18.206;2022-11-20T02:45:37;-0.50;99.90
8684;DHT22;4379;59.744;18.206;2022-11-20T02:48:06;-0.60;99.90
8684;DHT22;4379;59.744;18.206;2022-11-20T02:50:37;-0.50;99.90
8684;DHT22;4379;59.744;18.206;2022-11-20T02:53:05;-0.40;99.90
8684;DHT22;4379;59.744;18.206;2022-11-20T02:55:33;-0.50;99.90
8684;DHT22;4379;59.744;18.206;2022-11-20T02:58:00;-0.40;99.90
8684;DHT22;4379;59.744;18.206;2022-11-20T03:00:27;-0.60;99.90
8684;DHT22;4379;59.744;18.206;2022-11-20T03:02:54;-0.50;99.90
8684;DHT22;4379;59.744;18.206;2022-11-20T03:05:22;-0.50;99.90
8684;DHT22;4379;59.744;18.206;2022-11-20T03:07:49;-0.50;99.90
8684;DHT22;4379;59.744;18.206;2022-11-20T03:10:17;-0.50;99.90
8684;DHT22;4379;59.744;18.206;2022-11-20T03:12:44;-0.50;99.90
8684;DHT22;4379;59.744;18.206;2022-11-20T03:15:12;-0.60;99.90
8684;DHT22;4379;59.744;18.206;2022-11-20T03:17:39;-0.50;99.90
8684;DHT22;4379;59.744;18.206;2022-11-20T03:20:08;-0.50;99.90
8684;DHT22;4379;59.744;18.206;2022-11-20T03:22:35;-0.40;99.90
8684;DHT22;4379;59.744;18.206;2022-11-20T03:25:03;-0.40;99.90
8684;DHT22;4379;59.744;18.206;2022-11-20T03:27:34;-0.40;99.90
8684;DHT22;4379;59.744;18.206;2022-11-20T03:30:02;-0.30;99.90
8684;DHT22;4379;59.744;18.206;2022-11-20T03:32:29;-0.30;99.90
8684;DHT22;4379;59.744;18.206;2022-11-20T03:34:57;-0.30;99.90
8684;DHT22;4379;59.744;18.206;2022-11-20T03:37:24;-0.30;99.90
8684;DHT22;4379;59.744;18.206;2022-11-20T03:39:51;-0.20;99.90
8684;DHT22;4379;59.744;18.206;2022-11-20T03:42:18;-0.30;99.90
8684;DHT22;4379;59.744;18.206;2022-11-20T03:45:04;-0.30;99.90
8684;DHT22;4379;59.744;18.206;2022-11-20T03:47:32;-0.30;99.90
8684;DHT22;4379;59.744;18.206;2022-11-20T03:49:59;-0.40;99.90
8684;DHT22;4379;59.744;18.206;2022-11-20T03:52:26;-0.50;99.90
8684;DHT22;4379;59.744;18.206;2022-11-20T03:54:53;-0.50;99.90
8684;DHT22;4379;59.744;18.206;2022-11-20T03:57:21;-0.50;99.90
8684;DHT22;4379;59.744;18.206;2022-11-20T03:59:49;-0.50;99.90
8684;DHT22;4379;59.744;18.206;2022-11-20T04:02:16;-0.40;99.90
8684;DHT22;4379;59.744;18.206;2022-11-20T04:04:43;-0.30;99.90
8684;DHT22;4379;59.744;18.206;2022-11-20T04:07:11;-0.40;99.90
8684;DHT22;4379;59.744;18.206;2022-11-20T04:09:38;-0.50;99.90
8684;DHT22;4379;59.744;18.206;2022-11-20T04:12:05;-0.60;99.90
8684;DHT22;4379;59.744;18.206;2022-11-20T04:14:33;-0.50;99.90
8684;DHT22;4379;59.744;18.206;2022-11-20T04:17:00;-0.60;99.90
8684;DHT22;4379;59.744;18.206;2022-11-20T04:19:27;-0.60;99.90
8684;DHT22;4379;59.744;18.206;2022-11-20T04:21:54;-0.40;99.90
8684;DHT22;4379;59.744;18.206;2022-11-20T04:24:22;-0.40;99.90
8684;DHT22;4379;59.744;18.206;2022-11-20T04:26:49;-0.40;99.90
8684;DHT22;4379;59.744;18.206;2022-11-20T04:29:16;-0.40;99.90
8684;DHT22;4379;59.744;18.206;2022-11-20T04:31:44;-0.50;99.90
8684;DHT22;4379;59.744;18.206;2022-11-20T04:34:11;-0.50;99.90
8684;DHT22;4379;59.744;18.206;2022-11-20T04:36:39;-0.40;99.90
8684;DHT22;4379;59.744;18.206;2022-11-20T04:39:07;-0.40;99.90
8684;DHT22;4379;59.744;18.206;2022-11-20T04:41:36;-0.30;99.90
8684;DHT22;4379;59.744;18.206;2022-11-20T04:44:04;-0.30;99.90
8684;DHT22;4379;59.744;18.206;2022-11-20T04:46:34;-0.40;99.90
8684;DHT22;4379;59.744;18.206;2022-11-20T04:49:02;-0.30;99.90
8684;DHT22;4379;59.744;18.206;2022-11-20T04:51:30;-0.40;99.90
8684;DHT22;4379;59.744;18.206;2022-11-20T04:53:57;-0.30;99.90
8684;DHT22;4379;59.744;18.206;2022-11-20T04:56:25;-0.30;99.90
8684;DHT22;4379;59.744;18.206;2022-11-20T04:58:53;-0.30;99.90
8684;DHT22;4379;59.744;18.206;2022-11-20T05:01:22;-0.30;99.90
8684;DHT22;4379;59.744;18.206;2022-11-20T05:03:50;-0.40;99.90
8684;DHT22;4379;59.744;18.206;2022-11-20T05:06:19;-0.40;99.90
8684;DHT22;4379;59.744;18.206;2022-11-20T05:08:47;-0.50;99.90
8684;DHT22;4379;59.744;18.206;2022-11-20T05:11:16;-0.50;99.90
8684;DHT22;4379;59.744;18.206;2022-11-20T05:13:45;-0.50;99.90
8684;DHT22;4379;59.744;18.206;2022-11-20T05:16:14;-0.40;99.90
8684;DHT22;4379;59.744;18.206;2022-11-20T05:18:42;-0.50;99.90
8684;DHT22;4379;59.744;18.206;2022-11-20T05:21:10;-0.40;99.90
8684;DHT22;4379;59.744;18.206;2022-11-20T05:23:38;-0.50;99.90
8684;DHT22;4379;59.744;18.206;2022-11-20T05:26:08;-0.50;99.90
8684;DHT22;4379;59.744;18.206;2022-11-20T05:28:36;-0.60;99.90
8684;DHT22;4379;59.744;18.206;2022-11-20T05:31:15;-0.60;99.90
8684;DHT22;4379;59.744;18.206;2022-11-20T05:33:49;-0.60;99.90
8684;DHT22;4379;59.744;18.206;2022-11-20T05:36:17;-0.60;99.90
8684;DHT22;4379;59.744;18.206;2022-11-20T05:38:44;-0.60;99.90
8684;DHT22;4379;59.744;18.206;2022-11-20T05:41:18;-0.70;99.90
8684;DHT22;4379;59.744;18.206;2022-11-20T05:43:47;-0.60;99.90
8684;DHT22;4379;59.744;18.206;2022-11-20T05:46:16;-0.70;99.90
8684;DHT22;4379;59.744;18.206;2022-11-20T05:48:48;-0.70;99.90
8684;DHT22;4379;59.744;18.206;2022-11-20T05:51:17;-0.80;99.90
8684;DHT22;4379;59.744;18.206;2022-11-20T05:53:45;-0.80;99.90
8684;DHT22;4379;59.744;18.206;2022-11-20T05:56:16;-0.80;99.90
8684;DHT22;4379;59.744;18.206;2022-11-20T05:58:44;-0.80;99.90
8684;DHT22;4379;59.744;18.206;2022-11-20T06:01:17;-0.80;99.90
8684;DHT22;4379;59.744;18.206;2022-11-20T06:03:46;-0.80;99.90
8684;DHT22;4379;59.744;18.206;2022-11-20T06:06:15;-0.90;99.90
8684;DHT22;4379;59.744;18.206;2022-11-20T06:08:43;-0.80;99.90
8684;DHT22;4379;59.744;18.206;2022-11-20T06:11:12;-0.80;99.90
8684;DHT22;4379;59.744;18.206;2022-11-20T06:13:40;-0.90;99.90
8684;DHT22;4379;59.744;18.206;2022-11-20T06:16:10;-0.90;99.90
8684;DHT22;4379;59.744;18.206;2022-11-20T06:18:38;-0.80;99.90
8684;DHT22;4379;59.744;18.206;2022-11-20T06:21:10;-0.80;99.90
8684;DHT22;4379;59.744;18.206;2022-11-20T06:23:38;-0.80;99.90
8684;DHT22;4379;59.744;18.206;2022-11-20T06:26:08;-0.70;99.90
8684;DHT22;4379;59.744;18.206;2022-11-20T06:28:36;-0.80;99.90
8684;DHT22;4379;59.744;18.206;2022-11-20T06:31:04;-0.70;99.90
8684;DHT22;4379;59.744;18.206;2022-11-20T06:33:32;-0.80;99.90
8684;DHT22;4379;59.744;18.206;2022-11-20T06:36:01;-0.70;99.90
8684;DHT22;4379;59.744;18.206;2022-11-20T06:38:34;-0.70;99.90
8684;DHT22;4379;59.744;18.206;2022-11-20T06:41:03;-0.70;99.90
8684;DHT22;4379;59.744;18.206;2022-11-20T06:43:31;-0.60;99.90
8684;DHT22;4379;59.744;18.206;2022-11-20T06:45:59;-0.60;99.90
8684;DHT22;4379;59.744;18.206;2022-11-20T06:48:27;-0.60;99.90
8684;DHT22;4379;59.744;18.206;2022-11-20T06:50:55;-0.70;99.90
8684;DHT22;4379;59.744;18.206;2022-11-20T06:53:23;-0.60;99.90
8684;DHT22;4379;59.744;18.206;2022-11-20T06:55:51;-0.60;99.90
8684;DHT22;4379;59.744;18.206;2022-11-20T06:58:18;-0.60;99.90
8684;DHT22;4379;59.744;18.206;2022-11-20T07:00:46;-0.60;99.90
8684;DHT22;4379;59.744;18.206;2022-11-20T07:03:13;-0.60;99.90
8684;DHT22;4379;59.744;18.206;2022-11-20T07:05:41;-0.60;99.90
8684;DHT22;4379;59.744;18.206;2022-11-20T07:08:08;-0.50;99.90
8684;DHT22;4379;59.744;18.206;2022-11-20T07:10:36;-0.40;99.90
8684;DHT22;4379;59.744;18.206;2022-11-20T07:13:03;-0.40;99.90
8684;DHT22;4379;59.744;18.206;2022-11-20T07:15:30;-0.50;99.90
8684;DHT22;4379;59.744;18.206;2022-11-20T07:18:01;-0.50;99.90
8684;DHT22;4379;59.744;18.206;2022-11-20T07:20:28;-0.50;99.90
8684;DHT22;4379;59.744;18.206;2022-11-20T07:22:56;-0.40;99.90
8684;DHT22;4379;59.744;18.206;2022-11-20T07:25:25;-0.40;99.90
8684;DHT22;4379;59.744;18.206;2022-11-20T07:28:00;-0.40;99.90
8684;DHT22;4379;59.744;18.206;2022-11-20T07:30:28;-0.40;99.90
8684;DHT22;4379;59.744;18.206;2022-11-20T07:32:56;-0.30;99.90
8684;DHT22;4379;59.744;18.206;2022-11-20T07:35:24;-0.30;99.90
8684;DHT22;4379;59.744;18.206;2022-11-20T07:37:52;-0.40;99.90
8684;DHT22;4379;59.744;18.206;2022-11-20T07:40:19;-0.40;99.90
8684;DHT22;4379;59.744;18.206;2022-11-20T07:42:51;-0.30;99.90
8684;DHT22;4379;59.744;18.206;2022-11-20T07:45:20;-0.40;99.90
8684;DHT22;4379;59.744;18.206;2022-11-20T07:47:48;-0.40;99.90
8684;DHT22;4379;59.744;18.206;2022-11-20T07:50:16;-0.50;99.90
8684;DHT22;4379;59.744;18.206;2022-11-20T07:52:44;-0.30;99.90
8684;DHT22;4379;59.744;18.206;2022-11-20T07:55:11;-0.20;99.90
8684;DHT22;4379;59.744;18.206;2022-11-20T07:57:38;-0.10;99.90
8684;DHT22;4379;59.744;18.206;2022-11-20T08:00:07;-0.20;99.90
8684;DHT22;4379;59.744;18.206;2022-11-20T08:02:42;-0.20;99.90
8684;DHT22;4379;59.744;18.206;2022-11-20T08:05:09;-0.20;99.90
8684;DHT22;4379;59.744;18.206;2022-11-20T08:07:41;-0.10;99.90
8684;DHT22;4379;59.744;18.206;2022-11-20T08:10:10;0.00;99.90
8684;DHT22;4379;59.744;18.206;2022-11-20T08:12:45;0.10;99.90
8684;DHT22;4379;59.744;18.206;2022-11-20T08:15:31;0.00;99.90
8684;DHT22;4379;59.744;18.206;2022-11-20T08:18:07;-0.10;99.90
8684;DHT22;4379;59.744;18.206;2022-11-20T08:20:55;-0.20;99.90
8684;DHT22;4379;59.744;18.206;2022-11-20T08:23:22;-0.10;99.90
8684;DHT22;4379;59.744;18.206;2022-11-20T08:25:50;-0.10;99.90
8684;DHT22;4379;59.744;18.206;2022-11-20T08:28:18;0.00;99.90
8684;DHT22;4379;59.744;18.206;2022-11-20T08:30:48;-0.10;99.90
8684;DHT22;4379;59.744;18.206;2022-11-20T08:33:17;0.00;99.90
8684;DHT22;4379;59.744;18.206;2022-11-20T08:35:45;0.10;99.90
8684;DHT22;4379;59.744;18.206;2022-11-20T08:38:13;0.10;99.90
8684;DHT22;4379;59.744;18.206;2022-11-20T08:40:40;-0.10;99.90
8684;DHT22;4379;59.744;18.206;2022-11-20T08:43:08;-0.10;99.90
8684;DHT22;4379;59.744;18.206;2022-11-20T08:45:35;-0.10;99.90
8684;DHT22;4379;59.744;18.206;2022-11-20T08:48:03;0.00;99.90
8684;DHT22;4379;59.744;18.206;2022-11-20T08:50:31;0.00;99.90
8684;DHT22;4379;59.744;18.206;2022-11-20T08:53:06;0.10;99.90
8684;DHT22;4379;59.744;18.206;2022-11-20T08:55:33;0.20;99.90
8684;DHT22;4379;59.744;18.206;2022-11-20T08:58:06;0.20;99.90
8684;DHT22;4379;59.744;18.206;2022-11-20T09:00:33;0.20;99.90
8684;DHT22;4379;59.744;18.206;2022-11-20T09:03:01;0.10;99.90
8684;DHT22;4379;59.744;18.206;2022-11-20T09:05:30;0.10;99.90
8684;DHT22;4379;59.744;18.206;2022-11-20T09:07:58;0.20;99.90
8684;DHT22;4379;59.744;18.206;2022-11-20T09:10:27;0.20;99.90
8684;DHT22;4379;59.744;18.206;2022-11-20T09:12:56;0.20;99.90
8684;DHT22;4379;59.744;18.206;2022-11-20T09:15:25;0.30;99.90
8684;DHT22;4379;59.744;18.206;2022-11-20T09:18:12;0.30;99.90
8684;DHT22;4379;59.744;18.206;2022-11-20T09:20:40;0.20;99.90
8684;DHT22;4379;59.744;18.206;2022-11-20T09:23:09;0.30;99.90
8684;DHT22;4379;59.744;18.206;2022-11-20T09:25:36;0.30;99.90
8684;DHT22;4379;59.744;18.206;2022-11-20T09:28:05;0.30;99.90
8684;DHT22;4379;59.744;18.206;2022-11-20T09:30:33;0.10;99.90
8684;DHT22;4379;59.744;18.206;2022-11-20T09:33:00;0.30;99.90
8684;DHT22;4379;59.744;18.206;2022-11-20T09:35:28;0.30;99.90
8684;DHT22;4379;59.744;18.206;2022-11-20T09:37:56;0.40;99.90
8684;DHT22;4379;59.744;18.206;2022-11-20T09:40:26;0.40;99.90
8684;DHT22;4379;59.744;18.206;2022-11-20T09:46:20;0.50;99.90
8684;DHT22;4379;59.744;18.206;2022-11-20T09:52:22;0.30;99.90
8684;DHT22;4379;59.744;18.206;2022-11-20T09:54:54;0.50;99.90
8684;DHT22;4379;59.744;18.206;2022-11-20T09:57:28;0.50;99.90
8684;DHT22;4379;59.744;18.206;2022-11-20T10:00:01;0.50;99.90
8684;DHT22;4379;59.744;18.206;2022-11-20T10:02:59;0.30;99.90
8684;DHT22;4379;59.744;18.206;2022-11-20T10:08:35;0.30;99.90
8684;DHT22;4379;59.744;18.206;2022-11-20T10:11:19;0.40;99.90
8684;DHT22;4379;59.744;18.206;2022-11-20T10:19:44;0.50;99.90
8684;DHT22;4379;59.744;18.206;2022-11-20T10:22:40;0.40;99.90
8684;DHT22;4379;59.744;18.206;2022-11-20T10:25:19;0.40;99.90
8684;DHT22;4379;59.744;18.206;2022-11-20T10:28:01;0.40;99.90
8684;DHT22;4379;59.744;18.206;2022-11-20T10:30:36;0.30;99.90
8684;DHT22;4379;59.744;18.206;2022-11-20T10:33:21;0.20;99.90
8684;DHT22;4379;59.744;18.206;2022-11-20T10:38:25;0.40;99.90
8684;DHT22;4379;59.744;18.206;2022-11-20T10:40:57;0.50;99.90
8684;DHT22;4379;59.744;18.206;2022-11-20T10:43:48;0.40;99.90
8684;DHT22;4379;59.744;18.206;2022-11-20T10:46:21;0.30;99.90
8684;DHT22;4379;59.744;18.206;2022-11-20T10:48:50;0.40;99.90
8684;DHT22;4379;59.744;18.206;2022-11-20T10:51:33;0.40;99.90
8684;DHT22;4379;59.744;18.206;2022-11-20T11:00:09;0.50;99.90
8684;DHT22;4379;59.744;18.206;2022-11-20T11:02:52;0.30;99.90
8684;DHT22;4379;59.744;18.206;2022-11-20T11:05:40;0.50;99.90
8684;DHT22;4379;59.744;18.206;2022-11-20T11:08:16;0.40;99.90
8684;DHT22;4379;59.744;18.206;2022-11-20T11:11:21;0.40;99.90
8684;DHT22;4379;59.744;18.206;2022-11-20T11:13:50;0.50;99.90
8684;DHT22;4379;59.744;18.206;2022-11-20T11:16:27;0.50;99.90
8684;DHT22;4379;59.744;18.206;2022-11-20T11:19:06;0.50;99.90
8684;DHT22;4379;59.744;18.206;2022-11-20T11:21:34;0.30;99.90
8684;DHT22;4379;59.744;18.206;2022-11-20T11:24:04;0.50;99.90
8684;DHT22;4379;59.744;18.206;2022-11-20T11:26:58;0.70;99.90
8684;DHT22;4379;59.744;18.206;2022-11-20T11:29:26;0.70;99.90
8684;DHT22;4379;59.744;18.206;2022-11-20T11:32:07;0.50;99.90
8684;DHT22;4379;59.744;18.206;2022-11-20T11:34:35;0.60;99.90
8684;DHT22;4379;59.744;18.206;2022-11-20T11:37:03;0.60;99.90
8684;DHT22;4379;59.744;18.206;2022-11-20T11:39:33;0.50;99.90
8684;DHT22;4379;59.744;18.206;2022-11-20T11:42:01;0.40;99.90
8684;DHT22;4379;59.744;18.206;2022-11-20T11:44:33;0.50;99.90
8684;DHT22;4379;59.744;18.206;2022-11-20T11:47:29;0.50;99.90
8684;DHT22;4379;59.744;18.206;2022-11-20T11:53:03;0.50;99.90
8684;DHT22;4379;59.744;18.206;2022-11-20T11:58:25;0.60;99.90
8684;DHT22;4379;59.744;18.206;2022-11-20T12:01:27;0.60;99.90
8684;DHT22;4379;59.744;18.206;2022-11-20T12:06:32;0.50;99.90
8684;DHT22;4379;59.744;18.206;2022-11-20T12:09:03;0.50;99.90
8684;DHT22;4379;59.744;18.206;2022-11-20T12:14:30;0.50;99.90
8684;DHT22;4379;59.744;18.206;2022-11-20T12:17:02;0.50;99.90
8684;DHT22;4379;59.744;18.206;2022-11-20T12:19:31;0.40;99.90
8684;DHT22;4379;59.744;18.206;2022-11-20T12:30:33;0.30;99.90
8684;DHT22;4379;59.744;18.206;2022-11-20T12:39:07;0.30;99.90
8684;DHT22;4379;59.744;18.206;2022-11-20T12:48:01;0.40;99.90
8684;DHT22;4379;59.744;18.206;2022-11-20T12:59:27;0.30;99.90
8684;DHT22;4379;59.744;18.206;2022-11-20T13:07:24;0.40;99.90
8684;DHT22;4379;59.744;18.206;2022-11-20T13:09:53;0.30;99.90
8684;DHT22;4379;59.744;18.206;2022-11-20T13:17:57;0.20;99.90
8684;DHT22;4379;59.744;18.206;2022-11-20T13:20:25;0.30;99.90
8684;DHT22;4379;59.744;18.206;2022-11-20T13:22:54;0.40;99.90
8684;DHT22;4379;59.744;18.206;2022-11-20T13:27:50;0.50;99.90
8684;DHT22;4379;59.744;18.206;2022-11-20T13:30:20;0.50;99.90
8684;DHT22;4379;59.744;18.206;2022-11-20T13:35:42;0.60;99.90
8684;DHT22;4379;59.744;18.206;2022-11-20T13:38:12;0.60;99.90
8684;DHT22;4379;59.744;18.206;2022-11-20T13:40:52;0.30;99.90
8684;DHT22;4379;59.744;18.206;2022-11-20T13:43:37;0.20;99.90
8684;DHT22;4379;59.744;18.206;2022-11-20T13:46:06;0.30;99.90
8684;DHT22;4379;59.744;18.206;2022-11-20T13:48:39;0.30;99.90
8684;DHT22;4379;59.744;18.206;2022-11-20T13:59:18;0.00;99.90
8684;DHT22;4379;59.744;18.206;2022-11-20T14:01:51;0.10;99.90
8684;DHT22;4379;59.744;18.206;2022-11-20T14:04:30;0.10;99.90
8684;DHT22;4379;59.744;18.206;2022-11-20T14:06:58;0.10;99.90
8684;DHT22;4379;59.744;18.206;2022-11-20T14:09:31;0.00;99.90
8684;DHT22;4379;59.744;18.206;2022-11-20T14:12:03;0.10;99.90
8684;DHT22;4379;59.744;18.206;2022-11-20T14:14:33;0.00;99.90
8684;DHT22;4379;59.744;18.206;2022-11-20T14:17:41;0.00;99.90
8684;DHT22;4379;59.744;18.206;2022-11-20T14:20:04;0.00;99.90
8684;DHT22;4379;59.744;18.206;2022-11-20T14:22:34;-0.10;99.90
8684;DHT22;4379;59.744;18.206;2022-11-20T14:27:53;0.00;99.90
8684;DHT22;4379;59.744;18.206;2022-11-20T14:30:37;0.00;99.90
8684;DHT22;4379;59.744;18.206;2022-11-20T14:33:13;0.00;99.90
8684;DHT22;4379;59.744;18.206;2022-11-20T14:35:47;0.10;99.90
8684;DHT22;4379;59.744;18.206;2022-11-20T14:38:18;0.10;99.90
8684;DHT22;4379;59.744;18.206;2022-11-20T14:40:48;0.10;99.90
8684;DHT22;4379;59.744;18.206;2022-11-20T14:43:28;0.00;99.90
8684;DHT22;4379;59.744;18.206;2022-11-20T14:46:00;-0.10;99.90
8684;DHT22;4379;59.744;18.206;2022-11-20T14:51:22;0.00;99.90
8684;DHT22;4379;59.744;18.206;2022-11-20T14:53:52;-0.20;99.90
8684;DHT22;4379;59.744;18.206;2022-11-20T14:56:22;-0.30;99.90
8684;DHT22;4379;59.744;18.206;2022-11-20T14:59:00;-0.40;99.90
8684;DHT22;4379;59.744;18.206;2022-11-20T15:01:32;-0.40;99.90
8684;DHT22;4379;59.744;18.206;2022-11-20T15:04:06;-0.40;99.90
8684;DHT22;4379;59.744;18.206;2022-11-20T15:06:36;-0.40;99.90
8684;DHT22;4379;59.744;18.206;2022-11-20T15:09:12;-0.30;99.90
8684;DHT22;4379;59.744;18.206;2022-11-20T15:11:52;-0.40;99.90
8684;DHT22;4379;59.744;18.206;2022-11-20T15:14:24;-0.40;99.90
8684;DHT22;4379;59.744;18.206;2022-11-20T15:16:53;-0.40;99.90
8684;DHT22;4379;59.744;18.206;2022-11-20T15:19:25;-0.30;99.90
8684;DHT22;4379;59.744;18.206;2022-11-20T15:21:56;-0.30;99.90
8684;DHT22;4379;59.744;18.206;2022-11-20T15:24:26;-0.30;99.90
8684;DHT22;4379;59.744;18.206;2022-11-20T15:26:56;-0.40;99.90
8684;DHT22;4379;59.744;18.206;2022-11-20T15:29:24;-0.30;99.90
8684;DHT22;4379;59.744;18.206;2022-11-20T15:31:54;-0.40;99.90
8684;DHT22;4379;59.744;18.206;2022-11-20T15:34:26;-0.40;99.90
8684;DHT22;4379;59.744;18.206;2022-11-20T15:36:58;-0.40;99.90
8684;DHT22;4379;59.744;18.206;2022-11-20T15:39:31;-0.30;99.90
8684;DHT22;4379;59.744;18.206;2022-11-20T15:41:59;-0.50;99.90
8684;DHT22;4379;59.744;18.206;2022-11-20T15:44:27;-0.50;99.90
8684;DHT22;4379;59.744;18.206;2022-11-20T15:46:54;-0.50;99.90
8684;DHT22;4379;59.744;18.206;2022-11-20T15:49:21;-0.40;99.90
8684;DHT22;4379;59.744;18.206;2022-11-20T15:51:50;-0.40;99.90
8684;DHT22;4379;59.744;18.206;2022-11-20T15:54:21;-0.40;99.90
8684;DHT22;4379;59.744;18.206;2022-11-20T15:56:50;-0.50;99.90
8684;DHT22;4379;59.744;18.206;2022-11-20T15:59:19;-0.50;99.90
8684;DHT22;4379;59.744;18.206;2022-11-20T16:01:46;-0.40;99.90
8684;DHT22;4379;59.744;18.206;2022-11-20T16:04:16;-0.50;99.90
8684;DHT22;4379;59.744;18.206;2022-11-20T16:06:43;-0.40;99.90
8684;DHT22;4379;59.744;18.206;2022-11-20T16:09:10;-0.40;99.90
8684;DHT22;4379;59.744;18.206;2022-11-20T16:11:38;-0.40;99.90
8684;DHT22;4379;59.744;18.206;2022-11-20T16:14:06;-0.40;99.90
8684;DHT22;4379;59.744;18.206;2022-11-20T16:16:52;-0.50;99.90
8684;DHT22;4379;59.744;18.206;2022-11-20T16:19:19;-0.40;99.90
8684;DHT22;4379;59.744;18.206;2022-11-20T16:21:47;-0.40;99.90
8684;DHT22;4379;59.744;18.206;2022-11-20T16:24:15;-0.50;99.90
8684;DHT22;4379;59.744;18.206;2022-11-20T16:26:43;-0.60;99.90
8684;DHT22;4379;59.744;18.206;2022-11-20T16:29:11;-0.60;99.90
8684;DHT22;4379;59.744;18.206;2022-11-20T16:31:39;-0.60;99.90
8684;DHT22;4379;59.744;18.206;2022-11-20T16:34:07;-0.60;99.90
8684;DHT22;4379;59.744;18.206;2022-11-20T16:36:42;-0.60;99.90
8684;DHT22;4379;59.744;18.206;2022-11-20T16:39:12;-0.60;99.90
8684;DHT22;4379;59.744;18.206;2022-11-20T16:41:42;-0.60;99.90
8684;DHT22;4379;59.744;18.206;2022-11-20T16:44:10;-0.50;99.90
8684;DHT22;4379;59.744;18.206;2022-11-20T16:46:38;-0.50;99.90
8684;DHT22;4379;59.744;18.206;2022-11-20T16:49:11;-0.50;99.90
8684;DHT22;4379;59.744;18.206;2022-11-20T16:51:39;-0.60;99.90
8684;DHT22;4379;59.744;18.206;2022-11-20T16:54:08;-0.60;99.90
8684;DHT22;4379;59.744;18.206;2022-11-20T16:56:36;-0.60;99.90
8684;DHT22;4379;59.744;18.206;2022-11-20T16:59:03;-0.60;99.90
8684;DHT22;4379;59.744;18.206;2022-11-20T17:01:31;-0.40;99.90
8684;DHT22;4379;59.744;18.206;2022-11-20T17:04:05;-0.40;99.90
8684;DHT22;4379;59.744;18.206;2022-11-20T17:06:35;-0.40;99.90
8684;DHT22;4379;59.744;18.206;2022-11-20T17:09:04;-0.50;99.90
8684;DHT22;4379;59.744;18.206;2022-11-20T17:11:31;-0.50;99.90
8684;DHT22;4379;59.744;18.206;2022-11-20T17:13:59;-0.50;99.90
8684;DHT22;4379;59.744;18.206;2022-11-20T17:16:28;-0.50;99.90
8684;DHT22;4379;59.744;18.206;2022-11-20T17:18:57;-0.50;99.90
8684;DHT22;4379;59.744;18.206;2022-11-20T17:21:32;-0.40;99.90
8684;DHT22;4379;59.744;18.206;2022-11-20T17:24:05;-0.50;99.90
8684;DHT22;4379;59.744;18.206;2022-11-20T17:26:33;-0.40;99.90
8684;DHT22;4379;59.744;18.206;2022-11-20T17:29:04;-0.50;99.90
8684;DHT22;4379;59.744;18.206;2022-11-20T17:31:34;-0.50;99.90
8684;DHT22;4379;59.744;18.206;2022-11-20T17:34:02;-0.50;99.90
8684;DHT22;4379;59.744;18.206;2022-11-20T17:36:32;-0.50;99.90
8684;DHT22;4379;59.744;18.206;2022-11-20T17:39:00;-0.50;99.90
8684;DHT22;4379;59.744;18.206;2022-11-20T17:41:28;-0.40;99.90
8684;DHT22;4379;59.744;18.206;2022-11-20T17:43:58;-0.50;99.90
8684;DHT22;4379;59.744;18.206;2022-11-20T17:46:27;-0.60;99.90
8684;DHT22;4379;59.744;18.206;2022-11-20T17:48:57;-0.60;99.90
8684;DHT22;4379;59.744;18.206;2022-11-20T17:51:27;-0.60;99.90